sensor_id;sensor_type;location;lat;lon;timestamp;P1;durP1;ratioP1;P2;durP2;ratioP2
9827;SDS011;4953;48.952;9.442;2022-10-16T04:01:24;6.10;;;3.37;;
9827;SDS011;4953;48.952;9.442;2022-10-16T04:03:51;5.17;;;3.47;;
9827;SDS011;4953;48.952;9.442;2022-10-16T04:06:18;5.50;;;3.20;;
9827;SDS011;4953;48.952;9.442;2022-10-16T04:08:45;5.87;;;3.30;;
9827;SDS011;4953;48.952;9.442;2022-10-16T04:11:11;6.50;;;3.53;;
9827;SDS011;4953;48.952;9.442;2022-10-16T04:13:38;3.70;;;3.03;;
9827;SDS011;4953;48.952;9.442;2022-10-16T04:16:05;8.57;;;3.80;;
9827;SDS011;4953;48.952;9.442;2022-10-16T04:18:33;7.40;;;3.37;;
9827;SDS011;4953;48.952;9.442;2022-10-16T04:21:02;6.67;;;3.57;;
9827;SDS011;4953;48.952;9.442;2022-10-16T04:23:29;5.00;;;3.80;;
9827;SDS011;4953;48.952;9.442;2022-10-16T04:25:56;5.20;;;4.00;;
9827;SDS011;4953;48.952;9.442;2022-10-16T04:28:23;9.97;;;3.27;;
9827;SDS011;4953;48.952;9.442;2022-10-16T04:30:50;6.33;;;3.07;;
9827;SDS011;4953;48.952;9.442;2022-10-16T04:33:16;9.50;;;3.77;;
9827;SDS011;4953;48.952;9.442;2022-10-16T04:35:45;10.90;;;3.73;;
9827;SDS011;4953;48.952;9.442;2022-10-16T04:38:11;5.13;;;3.23;;
9827;SDS011;4953;48.952;9.442;2022-10-16T04:40:38;6.30;;;3.27;;
9827;SDS011;4953;48.952;9.442;2022-10-16T04:43:05;8.43;;;3.80;;
9827;SDS011;4953;48.952;9.442;2022-10-16T04:45:32;5.00;;;3.57;;
9827;SDS011;4953;48.952;9.442;2022-10-16T04:47:59;4.30;;;3.57;;
9827;SDS011;4953;48.952;9.442;2022-10-16T04:50:26;5.90;;;3.40;;
9827;SDS011;4953;48.952;9.442;2022-10-16T04:52:54;5.40;;;3.57;;
9827;SDS011;4953;48.952;9.442;2022-10-16T04:55:21;5.57;;;3.37;;
9827;SDS011;4953;48.952;9.442;2022-10-16T04:57:48;9.83;;;3.67;;
9827;SDS011;4953;48.952;9.442;2022-10-16T05:00:14;7.27;;;3.83;;
9827;SDS011;4953;48.952;9.442;2022-10-16T05:02:41;10.30;;;3.97;;
9827;SDS011;4953;48.952;9.442;2022-10-16T05:05:08;3.80;;;3.30;;
9827;SDS011;4953;48.952;9.442;2022-10-16T05:07:35;5.27;;;3.83;;
9827;SDS011;4953;48.952;9.442;2022-10-16T05:10:03;5.90;;;3.97;;
9827;SDS011;4953;48.952;9.442;2022-10-16T05:12:31;5.20;;;3.00;;
9827;SDS011;4953;48.952;9.442;2022-10-16T05:14:58;3.33;;;3.03;;
9827;SDS011;4953;48.952;9.442;2022-10-16T05:17:25;12.07;;;3.80;;
9827;SDS011;4953;48.952;9.442;2022-10-16T05:19:52;3.93;;;3.63;;
9827;SDS011;4953;48.952;9.442;2022-10-16T05:22:19;7.13;;;3.27;;
9827;SDS011;4953;48.952;9.442;2022-10-16T05:24:45;8.13;;;3.40;;
9827;SDS011;4953;48.952;9.442;2022-10-16T05:27:13;6.27;;;3.83;;
9827;SDS011;4953;48.952;9.442;2022-10-16T05:29:44;5.57;;;3.60;;
9827;SDS011;4953;48.952;9.442;2022-10-16T05:32:11;3.57;;;3.27;;
9827;SDS011;4953;48.952;9.442;2022-10-16T05:34:38;5.47;;;3.70;;
9827;SDS011;4953;48.952;9.442;2022-10-16T05:37:04;4.10;;;3.70;;
9827;SDS011;4953;48.952;9.442;2022-10-16T05:39:31;3.93;;;3.40;;
9827;SDS011;4953;48.952;9.442;2022-10-16T05:41:58;9.23;;;4.00;;
9827;SDS011;4953;48.952;9.442;2022-10-16T05:44:26;5.87;;;3.53;;
9827;SDS011;4953;48.952;9.442;2022-10-16T05:46:53;5.20;;;3.40;;
9827;SDS011;4953;48.952;9.442;2022-10-16T05:49:19;5.63;;;3.23;;
9827;SDS011;4953;48.952;9.442;2022-10-16T05:51:46;4.93;;;3.33;;
9827;SDS011;4953;48.952;9.442;2022-10-16T05:54:13;7.87;;;4.00;;
9827;SDS011;4953;48.952;9.442;2022-10-16T05:56:40;7.13;;;3.27;;
9827;SDS011;4953;48.952;9.442;2022-10-16T05:59:07;6.33;;;3.60;;
9827;SDS011;4953;48.952;9.442;2022-10-16T06:01:35;7.70;;;4.00;;
9827;SDS011;4953;48.952;9.442;2022-10-16T06:04:02;4.47;;;3.33;;
9827;SDS011;4953;48.952;9.442;2022-10-16T06:06:29;6.07;;;4.10;;
9827;SDS011;4953;48.952;9.442;2022-10-16T06:08:56;4.93;;;3.67;;
9827;SDS011;4953;48.952;9.442;2022-10-16T06:11:25;3.80;;;3.40;;
9827;SDS011;4953;48.952;9.442;2022-10-16T06:13:54;5.50;;;3.43;;
9827;SDS011;4953;48.952;9.442;2022-10-16T06:16:22;5.40;;;3.70;;
9827;SDS011;4953;48.952;9.442;2022-10-16T06:18:51;6.40;;;3.83;;
9827;SDS011;4953;48.952;9.442;2022-10-16T06:21:20;7.50;;;3.03;;
9827;SDS011;4953;48.952;9.442;2022-10-16T06:23:49;8.20;;;3.80;;
9827;SDS011;4953;48.952;9.442;2022-10-16T06:26:17;4.03;;;3.20;;
9827;SDS011;4953;48.952;9.442;2022-10-16T06:28:45;5.30;;;3.50;;
9827;SDS011;4953;48.952;9.442;2022-10-16T06:31:13;5.83;;;3.50;;
9827;SDS011;4953;48.952;9.442;2022-10-16T06:33:40;4.40;;;3.30;;
9827;SDS011;4953;48.952;9.442;2022-10-16T06:36:09;9.30;;;3.33;;
9827;SDS011;4953;48.952;9.442;2022-10-16T06:38:37;7.73;;;3.83;;
9827;SDS011;4953;48.952;9.442;2022-10-16T06:41:05;5.33;;;3.90;;
9827;SDS011;4953;48.952;9.442;2022-10-16T06:43:32;6.53;;;3.80;;
9827;SDS011;4953;48.952;9.442;2022-10-16T06:46:00;7.00;;;3.80;;
9827;SDS011;4953;48.952;9.442;2022-10-16T06:48:28;5.13;;;4.23;;
9827;SDS011;4953;48.952;9.442;2022-10-16T06:50:56;7.60;;;4.67;;
9827;SDS011;4953;48.952;9.442;2022-10-16T06:53:26;7.70;;;4.30;;
9827;SDS011;4953;48.952;9.442;2022-10-16T06:55:54;5.20;;;3.63;;
9827;SDS011;4953;48.952;9.442;2022-10-16T06:58:20;8.47;;;4.00;;
9827;SDS011;4953;48.952;9.442;2022-10-16T07:00:47;5.03;;;3.60;;
9827;SDS011;4953;48.952;9.442;2022-10-16T07:03:15;5.10;;;3.63;;
9827;SDS011;4953;48.952;9.442;2022-10-16T07:05:42;13.20;;;4.20;;
9827;SDS011;4953;48.952;9.442;2022-10-16T07:08:09;5.30;;;3.80;;
9827;SDS011;4953;48.952;9.442;2022-10-16T07:10:37;9.30;;;4.43;;
9827;SDS011;4953;48.952;9.442;2022-10-16T07:13:04;7.20;;;4.23;;
9827;SDS011;4953;48.952;9.442;2022-10-16T07:15:32;5.57;;;4.00;;
9827;SDS011;4953;48.952;9.442;2022-10-16T07:17:59;6.70;;;3.70;;
9827;SDS011;4953;48.952;9.442;2022-10-16T07:20:26;3.97;;;3.67;;
9827;SDS011;4953;48.952;9.442;2022-10-16T07:22:53;13.87;;;4.00;;
9827;SDS011;4953;48.952;9.442;2022-10-16T07:25:19;4.50;;;3.90;;
9827;SDS011;4953;48.952;9.442;2022-10-16T07:27:47;7.87;;;4.53;;
9827;SDS011;4953;48.952;9.442;2022-10-16T07:30:14;5.03;;;4.43;;
9827;SDS011;4953;48.952;9.442;2022-10-16T07:32:41;10.27;;;5.20;;
9827;SDS011;4953;48.952;9.442;2022-10-16T07:35:08;7.57;;;4.77;;
9827;SDS011;4953;48.952;9.442;2022-10-16T07:37:35;11.37;;;4.97;;
9827;SDS011;4953;48.952;9.442;2022-10-16T07:40:02;7.23;;;5.00;;
9827;SDS011;4953;48.952;9.442;2022-10-16T07:42:29;9.60;;;5.23;;
9827;SDS011;4953;48.952;9.442;2022-10-16T07:44:57;10.93;;;5.20;;
9827;SDS011;4953;48.952;9.442;2022-10-16T07:47:24;9.53;;;5.00;;
9827;SDS011;4953;48.952;9.442;2022-10-16T07:49:50;6.43;;;4.40;;
9827;SDS011;4953;48.952;9.442;2022-10-16T07:52:17;9.90;;;4.50;;
9827;SDS011;4953;48.952;9.442;2022-10-16T07:54:44;6.50;;;4.50;;
9827;SDS011;4953;48.952;9.442;2022-10-16T07:57:11;5.03;;;4.03;;
9827;SDS011;4953;48.952;9.442;2022-10-16T07:59:43;5.07;;;4.27;;
9827;SDS011;4953;48.952;9.442;2022-10-16T08:02:11;8.20;;;4.13;;
9827;SDS011;4953;48.952;9.442;2022-10-16T08:04:38;8.83;;;4.00;;
9827;SDS011;4953;48.952;9.442;2022-10-16T08:07:06;4.90;;;4.27;;
9827;SDS011;4953;48.952;9.442;2022-10-16T08:09:33;8.00;;;4.57;;
9827;SDS011;4953;48.952;9.442;2022-10-16T08:12:00;9.30;;;4.23;;
9827;SDS011;4953;48.952;9.442;2022-10-16T08:14:27;6.40;;;4.57;;
9827;SDS011;4953;48.952;9.442;2022-10-16T08:16:54;6.37;;;4.73;;
9827;SDS011;4953;48.952;9.442;2022-10-16T08:19:22;10.77;;;4.80;;
9827;SDS011;4953;48.952;9.442;2022-10-16T08:21:48;11.23;;;4.87;;
9827;SDS011;4953;48.952;9.442;2022-10-16T08:24:15;5.57;;;4.43;;
9827;SDS011;4953;48.952;9.442;2022-10-16T08:26:42;7.67;;;4.10;;
9827;SDS011;4953;48.952;9.442;2022-10-16T08:29:09;10.43;;;4.20;;
9827;SDS011;4953;48.952;9.442;2022-10-16T08:31:35;4.73;;;4.13;;
9827;SDS011;4953;48.952;9.442;2022-10-16T08:34:02;8.43;;;4.60;;
9827;SDS011;4953;48.952;9.442;2022-10-16T08:36:31;8.50;;;4.70;;
9827;SDS011;4953;48.952;9.442;2022-10-16T08:38:57;6.47;;;4.33;;
9827;SDS011;4953;48.952;9.442;2022-10-16T08:47:22;9.27;;;3.53;;
9827;SDS011;4953;48.952;9.442;2022-10-16T08:49:55;10.83;;;6.40;;
9827;SDS011;4953;48.952;9.442;2022-10-16T08:52:28;7.20;;;6.20;;
9827;SDS011;4953;48.952;9.442;2022-10-16T08:54:58;6.40;;;5.40;;
9827;SDS011;4953;48.952;9.442;2022-10-16T08:57:25;7.27;;;4.83;;
9827;SDS011;4953;48.952;9.442;2022-10-16T08:59:52;7.23;;;5.20;;
9827;SDS011;4953;48.952;9.442;2022-10-16T09:02:26;5.17;;;4.60;;
9827;SDS011;4953;48.952;9.442;2022-10-16T09:05:02;5.17;;;4.10;;
9827;SDS011;4953;48.952;9.442;2022-10-16T09:07:48;4.17;;;3.03;;
9827;SDS011;4953;48.952;9.442;2022-10-16T09:10:27;7.00;;;4.03;;
9827;SDS011;4953;48.952;9.442;2022-10-16T09:13:08;3.63;;;3.10;;
9827;SDS011;4953;48.952;9.442;2022-10-16T09:15:43;5.50;;;3.47;;
9827;SDS011;4953;48.952;9.442;2022-10-16T09:18:15;12.10;;;4.43;;
9827;SDS011;4953;48.952;9.442;2022-10-16T09:20:49;8.37;;;3.43;;
9827;SDS011;4953;48.952;9.442;2022-10-16T09:23:22;6.23;;;3.60;;
9827;SDS011;4953;48.952;9.442;2022-10-16T09:25:52;5.87;;;3.77;;
9827;SDS011;4953;48.952;9.442;2022-10-16T09:28:20;4.47;;;3.40;;
9827;SDS011;4953;48.952;9.442;2022-10-16T09:30:46;4.60;;;3.10;;
9827;SDS011;4953;48.952;9.442;2022-10-16T09:33:14;7.73;;;3.77;;
9827;SDS011;4953;48.952;9.442;2022-10-16T09:35:44;4.67;;;2.93;;
9827;SDS011;4953;48.952;9.442;2022-10-16T09:38:23;5.77;;;3.80;;
9827;SDS011;4953;48.952;9.442;2022-10-16T09:40:53;5.40;;;3.30;;
9827;SDS011;4953;48.952;9.442;2022-10-16T09:43:21;4.80;;;3.67;;
9827;SDS011;4953;48.952;9.442;2022-10-16T09:45:56;2.77;;;2.57;;
9827;SDS011;4953;48.952;9.442;2022-10-16T09:48:25;7.27;;;2.57;;
9827;SDS011;4953;48.952;9.442;2022-10-16T09:51:03;3.17;;;2.47;;
9827;SDS011;4953;48.952;9.442;2022-10-16T09:53:42;3.60;;;2.30;;
9827;SDS011;4953;48.952;9.442;2022-10-16T09:56:10;3.47;;;2.30;;
9827;SDS011;4953;48.952;9.442;2022-10-16T09:58:41;4.20;;;2.70;;
9827;SDS011;4953;48.952;9.442;2022-10-16T10:01:12;4.30;;;2.20;;
9827;SDS011;4953;48.952;9.442;2022-10-16T10:03:40;2.47;;;2.27;;
9827;SDS011;4953;48.952;9.442;2022-10-16T10:09:00;3.67;;;2.00;;
9827;SDS011;4953;48.952;9.442;2022-10-16T10:11:40;5.83;;;2.00;;
9827;SDS011;4953;48.952;9.442;2022-10-16T10:14:26;2.30;;;1.87;;
9827;SDS011;4953;48.952;9.442;2022-10-16T10:19:48;6.40;;;1.60;;
9827;SDS011;4953;48.952;9.442;2022-10-16T10:22:18;6.53;;;2.10;;
9827;SDS011;4953;48.952;9.442;2022-10-16T10:24:57;3.63;;;1.50;;
9827;SDS011;4953;48.952;9.442;2022-10-16T10:27:35;1.90;;;1.60;;
9827;SDS011;4953;48.952;9.442;2022-10-16T10:30:11;3.23;;;1.60;;
9827;SDS011;4953;48.952;9.442;2022-10-16T10:32:46;2.27;;;1.50;;
9827;SDS011;4953;48.952;9.442;2022-10-16T10:35:22;3.30;;;1.73;;
9827;SDS011;4953;48.952;9.442;2022-10-16T10:37:58;4.07;;;1.57;;
9827;SDS011;4953;48.952;9.442;2022-10-16T10:40:38;1.73;;;1.60;;
9827;SDS011;4953;48.952;9.442;2022-10-16T10:43:15;2.20;;;1.70;;
9827;SDS011;4953;48.952;9.442;2022-10-16T10:45:54;2.80;;;1.80;;
9827;SDS011;4953;48.952;9.442;2022-10-16T10:48:38;2.63;;;1.50;;
9827;SDS011;4953;48.952;9.442;2022-10-16T10:51:30;1.93;;;1.40;;
9827;SDS011;4953;48.952;9.442;2022-10-16T10:54:10;4.00;;;1.50;;
9827;SDS011;4953;48.952;9.442;2022-10-16T10:56:47;2.63;;;1.47;;
9827;SDS011;4953;48.952;9.442;2022-10-16T10:59:31;2.97;;;1.53;;
9827;SDS011;4953;48.952;9.442;2022-10-16T11:02:10;3.10;;;1.50;;
9827;SDS011;4953;48.952;9.442;2022-10-16T11:04:59;3.17;;;1.27;;
9827;SDS011;4953;48.952;9.442;2022-10-16T11:07:49;3.43;;;1.60;;
9827;SDS011;4953;48.952;9.442;2022-10-16T11:10:20;4.23;;;1.67;;
9827;SDS011;4953;48.952;9.442;2022-10-16T11:12:51;5.93;;;1.60;;
9827;SDS011;4953;48.952;9.442;2022-10-16T11:15:21;5.80;;;1.70;;
9827;SDS011;4953;48.952;9.442;2022-10-16T11:17:55;2.97;;;1.80;;
9827;SDS011;4953;48.952;9.442;2022-10-16T11:20:28;3.70;;;1.50;;
9827;SDS011;4953;48.952;9.442;2022-10-16T11:23:00;4.17;;;1.70;;
9827;SDS011;4953;48.952;9.442;2022-10-16T11:25:31;3.27;;;1.97;;
9827;SDS011;4953;48.952;9.442;2022-10-16T11:28:02;4.57;;;1.50;;
9827;SDS011;4953;48.952;9.442;2022-10-16T11:30:39;4.70;;;1.57;;
9827;SDS011;4953;48.952;9.442;2022-10-16T11:33:12;3.63;;;1.90;;
9827;SDS011;4953;48.952;9.442;2022-10-16T11:35:53;2.72;;;1.50;;
9827;SDS011;4953;48.952;9.442;2022-10-16T11:38:28;3.47;;;1.60;;
9827;SDS011;4953;48.952;9.442;2022-10-16T11:41:00;2.20;;;1.43;;
9827;SDS011;4953;48.952;9.442;2022-10-16T11:43:32;5.80;;;1.53;;
9827;SDS011;4953;48.952;9.442;2022-10-16T11:46:05;2.10;;;1.50;;
9827;SDS011;4953;48.952;9.442;2022-10-16T11:48:39;4.63;;;1.50;;
9827;SDS011;4953;48.952;9.442;2022-10-16T11:51:14;1.50;;;1.40;;
9827;SDS011;4953;48.952;9.442;2022-10-16T11:53:50;2.60;;;1.53;;
9827;SDS011;4953;48.952;9.442;2022-10-16T11:56:23;3.33;;;1.40;;
9827;SDS011;4953;48.952;9.442;2022-10-16T11:58:55;4.70;;;1.60;;
9827;SDS011;4953;48.952;9.442;2022-10-16T12:01:28;2.43;;;1.30;;
9827;SDS011;4953;48.952;9.442;2022-10-16T12:04:02;4.43;;;1.40;;
9827;SDS011;4953;48.952;9.442;2022-10-16T12:06:40;3.07;;;1.43;;
9827;SDS011;4953;48.952;9.442;2022-10-16T12:09:10;4.10;;;1.50;;
9827;SDS011;4953;48.952;9.442;2022-10-16T12:11:41;3.13;;;1.53;;
9827;SDS011;4953;48.952;9.442;2022-10-16T12:14:20;3.83;;;1.50;;
9827;SDS011;4953;48.952;9.442;2022-10-16T12:16:59;2.10;;;1.30;;
9827;SDS011;4953;48.952;9.442;2022-10-16T12:19:30;7.03;;;1.70;;
9827;SDS011;4953;48.952;9.442;2022-10-16T12:21:58;2.77;;;1.57;;
9827;SDS011;4953;48.952;9.442;2022-10-16T12:24:29;1.53;;;1.37;;
9827;SDS011;4953;48.952;9.442;2022-10-16T12:27:02;1.47;;;1.30;;
9827;SDS011;4953;48.952;9.442;2022-10-16T12:29:34;1.93;;;1.57;;
9827;SDS011;4953;48.952;9.442;2022-10-16T12:32:04;2.40;;;1.40;;
9827;SDS011;4953;48.952;9.442;2022-10-16T12:34:36;1.57;;;1.43;;
9827;SDS011;4953;48.952;9.442;2022-10-16T12:37:10;2.10;;;1.13;;
9827;SDS011;4953;48.952;9.442;2022-10-16T12:39:40;2.60;;;1.53;;
9827;SDS011;4953;48.952;9.442;2022-10-16T12:42:19;3.27;;;1.40;;
9827;SDS011;4953;48.952;9.442;2022-10-16T12:44:50;4.83;;;1.70;;
9827;SDS011;4953;48.952;9.442;2022-10-16T12:47:21;2.80;;;1.40;;
9827;SDS011;4953;48.952;9.442;2022-10-16T12:49:50;1.30;;;1.20;;
9827;SDS011;4953;48.952;9.442;2022-10-16T12:52:27;2.20;;;1.40;;
9827;SDS011;4953;48.952;9.442;2022-10-16T12:55:00;1.67;;;1.43;;
9827;SDS011;4953;48.952;9.442;2022-10-16T12:57:31;2.80;;;1.33;;
9827;SDS011;4953;48.952;9.442;2022-10-16T13:00:12;4.93;;;1.47;;
9827;SDS011;4953;48.952;9.442;2022-10-16T13:03:08;2.10;;;1.37;;
9827;SDS011;4953;48.952;9.442;2022-10-16T13:06:00;2.50;;;1.40;;
9827;SDS011;4953;48.952;9.442;2022-10-16T13:08:40;2.47;;;1.60;;
9827;SDS011;4953;48.952;9.442;2022-10-16T13:11:27;2.27;;;1.40;;
9827;SDS011;4953;48.952;9.442;2022-10-16T13:14:24;1.80;;;1.23;;
9827;SDS011;4953;48.952;9.442;2022-10-16T13:17:11;1.95;;;1.60;;
9827;SDS011;4953;48.952;9.442;2022-10-16T13:19:46;2.97;;;1.80;;
9827;SDS011;4953;48.952;9.442;2022-10-16T13:22:21;4.13;;;1.70;;
9827;SDS011;4953;48.952;9.442;2022-10-16T13:24:57;3.90;;;1.50;;
9827;SDS011;4953;48.952;9.442;2022-10-16T13:27:40;2.73;;;1.50;;
9827;SDS011;4953;48.952;9.442;2022-10-16T13:30:12;1.80;;;1.33;;
9827;SDS011;4953;48.952;9.442;2022-10-16T13:32:45;2.90;;;1.30;;
9827;SDS011;4953;48.952;9.442;2022-10-16T13:35:21;1.50;;;1.30;;
9827;SDS011;4953;48.952;9.442;2022-10-16T13:37:49;2.37;;;1.53;;
9827;SDS011;4953;48.952;9.442;2022-10-16T13:40:20;1.80;;;1.47;;
9827;SDS011;4953;48.952;9.442;2022-10-16T13:42:48;1.67;;;1.43;;
9827;SDS011;4953;48.952;9.442;2022-10-16T13:45:19;3.10;;;1.63;;
9827;SDS011;4953;48.952;9.442;2022-10-16T13:47:49;3.43;;;1.47;;
9827;SDS011;4953;48.952;9.442;2022-10-16T13:50:16;2.13;;;1.57;;
9827;SDS011;4953;48.952;9.442;2022-10-16T13:52:44;3.57;;;1.63;;
9827;SDS011;4953;48.952;9.442;2022-10-16T13:55:12;1.67;;;1.43;;
9827;SDS011;4953;48.952;9.442;2022-10-16T13:57:40;2.80;;;1.60;;
9827;SDS011;4953;48.952;9.442;2022-10-16T14:00:20;5.97;;;2.80;;
9827;SDS011;4953;48.952;9.442;2022-10-16T14:02:51;3.10;;;2.60;;
9827;SDS011;4953;48.952;9.442;2022-10-16T14:05:25;7.40;;;1.70;;
9827;SDS011;4953;48.952;9.442;2022-10-16T14:07:52;5.20;;;1.80;;
9827;SDS011;4953;48.952;9.442;2022-10-16T14:10:22;4.00;;;2.03;;
9827;SDS011;4953;48.952;9.442;2022-10-16T14:12:55;2.37;;;1.53;;
9827;SDS011;4953;48.952;9.442;2022-10-16T14:15:23;3.20;;;1.83;;
9827;SDS011;4953;48.952;9.442;2022-10-16T14:17:52;6.63;;;2.13;;
9827;SDS011;4953;48.952;9.442;2022-10-16T14:20:20;3.63;;;1.90;;
9827;SDS011;4953;48.952;9.442;2022-10-16T14:22:57;4.30;;;1.93;;
9827;SDS011;4953;48.952;9.442;2022-10-16T14:25:27;4.70;;;2.97;;
9827;SDS011;4953;48.952;9.442;2022-10-16T14:27:59;1.70;;;1.30;;
9827;SDS011;4953;48.952;9.442;2022-10-16T14:30:28;2.20;;;1.70;;
9827;SDS011;4953;48.952;9.442;2022-10-16T14:32:58;3.00;;;1.47;;
9827;SDS011;4953;48.952;9.442;2022-10-16T14:35:30;2.60;;;1.60;;
9827;SDS011;4953;48.952;9.442;2022-10-16T14:37:59;3.20;;;1.60;;
9827;SDS011;4953;48.952;9.442;2022-10-16T14:40:29;2.43;;;1.47;;
9827;SDS011;4953;48.952;9.442;2022-10-16T14:42:57;2.90;;;1.60;;
9827;SDS011;4953;48.952;9.442;2022-10-16T14:45:26;2.73;;;1.93;;
9827;SDS011;4953;48.952;9.442;2022-10-16T14:47:54;3.67;;;2.07;;
9827;SDS011;4953;48.952;9.442;2022-10-16T14:50:25;6.07;;;1.50;;
9827;SDS011;4953;48.952;9.442;2022-10-16T14:52:52;1.83;;;1.53;;
9827;SDS011;4953;48.952;9.442;2022-10-16T14:55:18;3.83;;;1.60;;
9827;SDS011;4953;48.952;9.442;2022-10-16T14:57:45;3.10;;;1.90;;
9827;SDS011;4953;48.952;9.442;2022-10-16T15:00:15;3.73;;;2.17;;
9827;SDS011;4953;48.952;9.442;2022-10-16T15:02:44;5.20;;;2.13;;
9827;SDS011;4953;48.952;9.442;2022-10-16T15:05:13;2.50;;;1.70;;
9827;SDS011;4953;48.952;9.442;2022-10-16T15:07:43;4.20;;;2.63;;
9827;SDS011;4953;48.952;9.442;2022-10-16T15:10:10;2.90;;;1.70;;
9827;SDS011;4953;48.952;9.442;2022-10-16T15:12:37;3.97;;;1.93;;
9827;SDS011;4953;48.952;9.442;2022-10-16T15:15:15;3.20;;;1.90;;
9827;SDS011;4953;48.952;9.442;2022-10-16T15:17:59;5.63;;;2.00;;
9827;SDS011;4953;48.952;9.442;2022-10-16T15:20:27;2.10;;;1.90;;
9827;SDS011;4953;48.952;9.442;2022-10-16T15:22:56;3.33;;;1.70;;
9827;SDS011;4953;48.952;9.442;2022-10-16T15:25:31;1.80;;;1.70;;
9827;SDS011;4953;48.952;9.442;2022-10-16T15:28:00;2.30;;;1.80;;
9827;SDS011;4953;48.952;9.442;2022-10-16T15:30:28;7.50;;;2.30;;
9827;SDS011;4953;48.952;9.442;2022-10-16T15:32:56;6.50;;;2.27;;
9827;SDS011;4953;48.952;9.442;2022-10-16T15:35:23;6.07;;;1.60;;
9827;SDS011;4953;48.952;9.442;2022-10-16T15:37:50;5.60;;;1.97;;
9827;SDS011;4953;48.952;9.442;2022-10-16T15:40:18;4.60;;;2.03;;
9827;SDS011;4953;48.952;9.442;2022-10-16T15:42:46;4.13;;;1.73;;
9827;SDS011;4953;48.952;9.442;2022-10-16T15:45:13;6.00;;;1.80;;
9827;SDS011;4953;48.952;9.442;2022-10-16T15:47:40;4.20;;;1.83;;
9827;SDS011;4953;48.952;9.442;2022-10-16T15:50:08;7.80;;;1.77;;
9827;SDS011;4953;48.952;9.442;2022-10-16T15:52:36;10.37;;;2.77;;
9827;SDS011;4953;48.952;9.442;2022-10-16T15:55:04;3.70;;;2.40;;
9827;SDS011;4953;48.952;9.442;2022-10-16T15:57:33;6.40;;;2.20;;
9827;SDS011;4953;48.952;9.442;2022-10-16T15:59:59;5.17;;;2.67;;
9827;SDS011;4953;48.952;9.442;2022-10-16T16:02:26;5.67;;;2.27;;
9827;SDS011;4953;48.952;9.442;2022-10-16T16:04:55;5.93;;;2.47;;
9827;SDS011;4953;48.952;9.442;2022-10-16T16:07:22;5.43;;;2.43;;
9827;SDS011;4953;48.952;9.442;2022-10-16T16:09:48;5.37;;;2.57;;
9827;SDS011;4953;48.952;9.442;2022-10-16T16:12:15;7.47;;;2.10;;
9827;SDS011;4953;48.952;9.442;2022-10-16T16:14:44;3.33;;;2.30;;
9827;SDS011;4953;48.952;9.442;2022-10-16T16:17:13;4.53;;;1.97;;
9827;SDS011;4953;48.952;9.442;2022-10-16T16:19:40;3.90;;;1.80;;
9827;SDS011;4953;48.952;9.442;2022-10-16T16:22:07;6.70;;;2.10;;
9827;SDS011;4953;48.952;9.442;2022-10-16T16:24:34;3.83;;;1.97;;
9827;SDS011;4953;48.952;9.442;2022-10-16T16:27:00;6.50;;;2.27;;
9827;SDS011;4953;48.952;9.442;2022-10-16T16:29:27;6.20;;;2.13;;
9827;SDS011;4953;48.952;9.442;2022-10-16T16:31:55;6.10;;;2.43;;
9827;SDS011;4953;48.952;9.442;2022-10-16T16:34:24;5.90;;;2.20;;
9827;SDS011;4953;48.952;9.442;2022-10-16T16:36:51;3.43;;;2.30;;
9827;SDS011;4953;48.952;9.442;2022-10-16T16:39:18;2.90;;;2.23;;
9827;SDS011;4953;48.952;9.442;2022-10-16T16:41:45;5.77;;;2.67;;
9827;SDS011;4953;48.952;9.442;2022-10-16T16:44:12;3.23;;;2.20;;
9827;SDS011;4953;48.952;9.442;2022-10-16T16:46:40;3.83;;;2.70;;
9827;SDS011;4953;48.952;9.442;2022-10-16T16:49:10;10.80;;;3.00;;
9827;SDS011;4953;48.952;9.442;2022-10-16T16:51:38;5.07;;;2.10;;
9827;SDS011;4953;48.952;9.442;2022-10-16T16:54:05;7.57;;;3.00;;
9827;SDS011;4953;48.952;9.442;2022-10-16T16:56:33;10.50;;;4.57;;
9827;SDS011;4953;48.952;9.442;2022-10-16T16:59:00;14.57;;;7.20;;
9827;SDS011;4953;48.952;9.442;2022-10-16T17:01:27;11.63;;;5.00;;
9827;SDS011;4953;48.952;9.442;2022-10-16T17:03:55;6.30;;;4.37;;
9827;SDS011;4953;48.952;9.442;2022-10-16T17:06:26;3.70;;;3.03;;
9827;SDS011;4953;48.952;9.442;2022-10-16T17:08:54;5.37;;;3.27;;
9827;SDS011;4953;48.952;9.442;2022-10-16T17:11:23;5.30;;;2.50;;
9827;SDS011;4953;48.952;9.442;2022-10-16T17:13:51;6.40;;;3.00;;
9827;SDS011;4953;48.952;9.442;2022-10-16T17:16:20;3.00;;;2.53;;
9827;SDS011;4953;48.952;9.442;2022-10-16T17:18:47;4.53;;;2.43;;
9827;SDS011;4953;48.952;9.442;2022-10-16T17:21:14;7.50;;;2.40;;
9827;SDS011;4953;48.952;9.442;2022-10-16T17:23:42;5.03;;;3.17;;
9827;SDS011;4953;48.952;9.442;2022-10-16T17:26:10;4.50;;;3.03;;
9827;SDS011;4953;48.952;9.442;2022-10-16T17:28:38;6.40;;;3.30;;
9827;SDS011;4953;48.952;9.442;2022-10-16T17:31:07;5.93;;;2.77;;
9827;SDS011;4953;48.952;9.442;2022-10-16T17:33:35;5.77;;;2.80;;
9827;SDS011;4953;48.952;9.442;2022-10-16T17:36:02;6.87;;;2.70;;
9827;SDS011;4953;48.952;9.442;2022-10-16T17:38:29;9.10;;;2.90;;
9827;SDS011;4953;48.952;9.442;2022-10-16T17:40:57;4.73;;;2.97;;
9827;SDS011;4953;48.952;9.442;2022-10-16T17:43:24;3.53;;;2.30;;
9827;SDS011;4953;48.952;9.442;2022-10-16T17:45:51;7.30;;;3.30;;
9827;SDS011;4953;48.952;9.442;2022-10-16T17:48:18;4.03;;;2.90;;
9827;SDS011;4953;48.952;9.442;2022-10-16T17:50:45;7.20;;;2.83;;
9827;SDS011;4953;48.952;9.442;2022-10-16T17:53:12;6.80;;;2.77;;
9827;SDS011;4953;48.952;9.442;2022-10-16T17:55:39;4.03;;;2.50;;
9827;SDS011;4953;48.952;9.442;2022-10-16T17:58:08;5.70;;;2.70;;
9827;SDS011;4953;48.952;9.442;2022-10-16T18:00:35;5.47;;;2.80;;
9827;SDS011;4953;48.952;9.442;2022-10-16T18:03:02;6.50;;;3.00;;
9827;SDS011;4953;48.952;9.442;2022-10-16T18:05:29;9.37;;;3.20;;
9827;SDS011;4953;48.952;9.442;2022-10-16T18:07:56;7.47;;;3.00;;
9827;SDS011;4953;48.952;9.442;2022-10-16T18:10:23;4.73;;;2.87;;
9827;SDS011;4953;48.952;9.442;2022-10-16T18:12:49;4.97;;;2.67;;
9827;SDS011;4953;48.952;9.442;2022-10-16T18:15:18;6.10;;;3.00;;
9827;SDS011;4953;48.952;9.442;2022-10-16T18:17:44;3.97;;;3.00;;
9827;SDS011;4953;48.952;9.442;2022-10-16T18:20:11;7.00;;;2.60;;
9827;SDS011;4953;48.952;9.442;2022-10-16T18:22:38;5.20;;;2.23;;
9827;SDS011;4953;48.952;9.442;2022-10-16T18:25:05;5.20;;;2.83;;
9827;SDS011;4953;48.952;9.442;2022-10-16T18:27:33;6.00;;;2.93;;
9827;SDS011;4953;48.952;9.442;2022-10-16T18:30:01;2.73;;;2.43;;
9827;SDS011;4953;48.952;9.442;2022-10-16T18:32:29;5.67;;;2.80;;
9827;SDS011;4953;48.952;9.442;2022-10-16T18:34:56;6.20;;;3.30;;
9827;SDS011;4953;48.952;9.442;2022-10-16T18:37:22;5.93;;;3.00;;
9827;SDS011;4953;48.952;9.442;2022-10-16T18:39:49;4.30;;;2.57;;
9827;SDS011;4953;48.952;9.442;2022-10-16T18:42:16;5.47;;;2.40;;
9827;SDS011;4953;48.952;9.442;2022-10-16T18:44:43;5.73;;;2.77;;
9827;SDS011;4953;48.952;9.442;2022-10-16T18:47:10;3.40;;;2.40;;
9827;SDS011;4953;48.952;9.442;2022-10-16T18:49:38;7.80;;;2.40;;
9827;SDS011;4953;48.952;9.442;2022-10-16T18:52:05;4.10;;;2.37;;
9827;SDS011;4953;48.952;9.442;2022-10-16T18:54:32;9.10;;;2.73;;
9827;SDS011;4953;48.952;9.442;2022-10-16T18:57:00;5.47;;;2.53;;
9827;SDS011;4953;48.952;9.442;2022-10-16T18:59:26;7.23;;;3.30;;
9827;SDS011;4953;48.952;9.442;2022-10-16T19:01:54;7.40;;;2.97;;
9827;SDS011;4953;48.952;9.442;2022-10-16T19:04:22;3.37;;;2.40;;
9827;SDS011;4953;48.952;9.442;2022-10-16T19:06:50;5.10;;;2.70;;
9827;SDS011;4953;48.952;9.442;2022-10-16T19:09:19;6.90;;;2.70;;
9827;SDS011;4953;48.952;9.442;2022-10-16T19:11:47;6.20;;;3.93;;
9827;SDS011;4953;48.952;9.442;2022-10-16T19:14:15;7.77;;;3.20;;
9827;SDS011;4953;48.952;9.442;2022-10-16T19:16:42;6.03;;;3.17;;
9827;SDS011;4953;48.952;9.442;2022-10-16T19:19:14;4.10;;;3.20;;
9827;SDS011;4953;48.952;9.442;2022-10-16T19:21:43;7.93;;;4.43;;
9827;SDS011;4953;48.952;9.442;2022-10-16T19:24:13;6.33;;;3.80;;
9827;SDS011;4953;48.952;9.442;2022-10-16T19:26:41;11.13;;;3.70;;
9827;SDS011;4953;48.952;9.442;2022-10-16T19:29:08;7.03;;;3.10;;
9827;SDS011;4953;48.952;9.442;2022-10-16T19:31:34;11.53;;;3.70;;
9827;SDS011;4953;48.952;9.442;2022-10-16T19:34:03;6.63;;;2.73;;
9827;SDS011;4953;48.952;9.442;2022-10-16T19:36:32;16.00;;;3.30;;
9827;SDS011;4953;48.952;9.442;2022-10-16T19:39:00;4.17;;;3.10;;
9827;SDS011;4953;48.952;9.442;2022-10-16T19:41:30;3.47;;;2.30;;
9827;SDS011;4953;48.952;9.442;2022-10-16T19:43:59;6.37;;;2.87;;